Time;durP1;ratioP1;P1;durP2;ratioP2;P2;SDS_P1;SDS_P2;PMS_P1;PMS_P2;Temp;Humidity;BMP_temperature;BMP_pressure;BME280_temperature;BME280_humidity;BME280_pressure;Samples;Min_cycle;Max_cycle;Signal;HPM_P1;HPM_P2
2023/01/08 00:01:31;;;;;;;7.32;0.77;;;9.50;99.90;;;;;;5081685;23;20144;-96
2023/01/08 00:03:39;;;;;;;3.35;0.50;;;9.50;99.90;;;;;;5077629;23;20244;-94
2023/01/08 00:05:43;;;;;;;2.17;0.52;;;9.50;99.90;;;;;;5111097;23;20184;-95
2023/01/08 00:07:46;;;;;;;4.07;0.60;;;9.40;99.90;;;;;;5080388;23;20165;-93
2023/01/08 00:09:51;;;;;;;3.45;0.57;;;9.30;99.90;;;;;;5056013;23;20142;-95
2023/01/08 00:11:52;;;;;;;3.17;0.68;;;9.10;99.90;;;;;;5105323;23;20133;-94
2023/01/08 00:13:56;;;;;;;3.55;0.57;;;9.00;99.90;;;;;;5081254;23;20145;-92
2023/01/08 00:16:27;;;;;;;7.80;0.70;;;9.10;99.90;;;;;;5104545;23;20177;-92
2023/01/08 00:18:31;;;;;;;2.90;0.70;;;9.10;99.90;;;;;;5106391;23;20172;-94
2023/01/08 00:20:53;;;;;;;4.15;0.63;;;9.10;99.90;;;;;;5077797;23;20191;-96
2023/01/08 00:23:03;;;;;;;8.85;1.15;;;9.20;99.90;;;;;;5056347;23;20154;-93
2023/01/08 00:25:08;;;;;;;5.70;0.73;;;9.00;99.90;;;;;;5060087;23;20154;-95
2023/01/08 00:27:14;;;;;;;5.93;0.73;;;9.10;99.90;;;;;;5061280;23;20184;-94
2023/01/08 00:29:26;;;;;;;5.13;0.70;;;9.10;99.90;;;;;;5108923;23;20129;-93
2023/01/08 00:31:28;;;;;;;1.23;0.43;;;9.20;99.90;;;;;;5057385;23;20162;-94
2023/01/08 00:33:46;;;;;;;3.28;0.50;;;9.20;99.90;;;;;;5059376;23;20158;-94
2023/01/08 00:35:46;;;;;;;9.25;0.90;;;9.20;99.90;;;;;;5056693;23;20276;-93
2023/01/08 00:37:50;;;;;;;2.72;0.60;;;9.10;99.90;;;;;;5054338;23;20205;-94
2023/01/08 00:39:53;;;;;;;3.88;0.40;;;9.20;99.90;;;;;;5058179;23;20161;-94
2023/01/08 00:41:54;;;;;;;4.10;0.70;;;9.20;99.90;;;;;;5057681;23;20150;-96
2023/01/08 00:44:00;;;;;;;5.68;0.57;;;9.20;99.90;;;;;;5054566;23;20272;-95
2023/01/08 00:46:01;;;;;;;6.88;0.50;;;9.20;99.90;;;;;;5080119;23;20244;-94
2023/01/08 00:48:08;;;;;;;2.88;0.32;;;9.20;99.90;;;;;;5055929;23;20570;-94
2023/01/08 00:50:20;;;;;;;4.82;0.55;;;9.20;99.90;;;;;;5106926;23;20161;-94
2023/01/08 00:52:23;;;;;;;4.00;0.52;;;9.20;99.90;;;;;;5055896;23;20172;-93
2023/01/08 00:54:35;;;;;;;5.85;0.55;;;9.20;99.90;;;;;;5085177;23;20190;-94
2023/01/08 00:56:41;;;;;;;5.15;0.60;;;9.20;99.90;;;;;;5081809;23;20164;-93
2023/01/08 00:58:42;;;;;;;4.93;0.50;;;9.30;99.90;;;;;;5084947;23;20148;-95
2023/01/08 01:00:50;;;;;;;3.13;0.75;;;9.30;99.90;;;;;;5057001;23;20134;-94
2023/01/08 01:02:53;;;;;;;3.08;0.40;;;9.30;99.90;;;;;;5079655;23;20137;-94
2023/01/08 01:04:54;;;;;;;5.68;0.50;;;9.30;99.90;;;;;;5083074;23;20158;-94
2023/01/08 01:07:00;;;;;;;8.20;0.77;;;9.30;99.90;;;;;;5081803;23;20158;-92
2023/01/08 01:09:03;;;;;;;5.75;0.70;;;9.30;99.90;;;;;;5104014;23;20179;-94
2023/01/08 01:11:21;;;;;;;2.95;1.20;;;9.50;99.90;;;;;;5059577;23;20135;-94
2023/01/08 01:13:30;;;;;;;7.22;0.80;;;9.50;99.90;;;;;;5054386;23;20145;-93
2023/01/08 01:15:34;;;;;;;4.28;0.65;;;9.50;99.90;;;;;;5058388;23;20190;-95
2023/01/08 01:17:38;;;;;;;6.63;0.50;;;9.40;99.90;;;;;;5057129;23;20186;-94
2023/01/08 01:19:41;;;;;;;6.20;0.88;;;9.30;99.90;;;;;;5056275;23;20158;-95
2023/01/08 01:22:01;;;;;;;5.00;0.50;;;9.30;99.90;;;;;;5080617;23;20188;-94
2023/01/08 01:24:26;;;;;;;3.28;0.77;;;9.40;99.90;;;;;;5100781;23;20172;-92
2023/01/08 01:26:32;;;;;;;4.10;0.77;;;9.60;99.90;;;;;;5077394;23;20505;-94
2023/01/08 01:28:36;;;;;;;7.15;0.95;;;9.50;99.90;;;;;;5076026;23;20157;-94
2023/01/08 01:30:36;;;;;;;6.30;0.77;;;9.50;99.90;;;;;;5102817;23;20165;-95
2023/01/08 01:32:43;;;;;;;4.72;0.75;;;9.50;99.90;;;;;;5077857;23;20154;-96
2023/01/08 01:34:43;;;;;;;7.13;1.00;;;9.50;99.90;;;;;;5081891;23;20165;-93
2023/01/08 01:36:51;;;;;;;4.95;0.95;;;9.60;99.90;;;;;;5074420;23;20178;-93
2023/01/08 01:38:58;;;;;;;6.22;0.93;;;9.80;99.90;;;;;;5103757;23;20153;-95
2023/01/08 01:40:59;;;;;;;9.57;1.52;;;9.80;99.90;;;;;;5078997;23;20608;-95
2023/01/08 01:42:59;;;;;;;4.88;1.05;;;9.70;99.90;;;;;;5054260;23;20165;-95
2023/01/08 01:45:22;;;;;;;10.27;1.23;;;9.70;99.90;;;;;;5077777;23;20161;-93
2023/01/08 01:47:29;;;;;;;6.40;1.02;;;9.60;99.90;;;;;;5053171;23;20178;-92
2023/01/08 01:49:34;;;;;;;5.35;1.13;;;9.50;99.90;;;;;;5082289;23;20153;-94
2023/01/08 01:52:05;;;;;;;9.30;1.52;;;9.60;99.90;;;;;;5082792;23;20153;-93
2023/01/08 01:54:09;;;;;;;7.15;1.13;;;9.60;99.90;;;;;;5081647;23;20192;-94
2023/01/08 01:56:31;;;;;;;3.10;1.00;;;9.80;99.90;;;;;;5056764;23;20182;-92
2023/01/08 01:58:33;;;;;;;6.03;1.30;;;9.90;99.90;;;;;;5051757;23;20139;-94
2023/01/08 02:00:35;;;;;;;4.38;1.30;;;10.20;99.90;;;;;;5076264;23;20153;-92
2023/01/08 02:02:36;;;;;;;3.17;1.30;;;10.10;99.90;;;;;;5104278;23;20160;-93
2023/01/08 02:04:40;;;;;;;7.85;1.40;;;10.00;99.90;;;;;;5077502;23;20160;-93
2023/01/08 02:06:47;;;;;;;5.57;1.70;;;10.00;99.90;;;;;;5057720;23;20217;-94
2023/01/08 02:09:07;;;;;;;7.45;1.33;;;9.90;99.90;;;;;;5089730;23;20141;-92
2023/01/08 02:11:18;;;;;;;4.25;1.50;;;10.00;99.90;;;;;;5079080;23;20153;-93
2023/01/08 02:13:30;;;;;;;3.88;1.58;;;10.10;99.90;;;;;;5080998;23;20142;-96
2023/01/08 02:15:49;;;;;;;5.63;1.60;;;10.10;99.90;;;;;;5101418;23;20203;-93
2023/01/08 02:18:13;;;;;;;6.57;1.80;;;10.00;99.90;;;;;;5077190;23;20161;-95
2023/01/08 02:20:44;;;;;;;7.80;2.03;;;10.00;99.90;;;;;;5055551;23;20237;-94
2023/01/08 02:23:06;;;;;;;7.93;2.03;;;10.00;99.90;;;;;;5078452;23;20181;-92
2023/01/08 02:25:37;;;;;;;9.35;1.95;;;10.10;99.90;;;;;;5077692;23;20581;-94
2023/01/08 02:27:48;;;;;;;5.03;1.45;;;10.10;99.90;;;;;;4936404;23;20166;-93
2023/01/08 02:29:53;;;;;;;5.53;1.30;;;10.00;99.90;;;;;;5078034;23;20153;-94
2023/01/08 02:31:55;;;;;;;5.43;1.20;;;10.00;99.90;;;;;;5105315;23;20137;-95
2023/01/08 02:33:56;;;;;;;5.90;1.20;;;10.10;99.90;;;;;;5101037;23;20157;-93
2023/01/08 02:36:26;;;;;;;9.15;1.27;;;10.10;99.90;;;;;;5079921;23;20268;-93
2023/01/08 02:38:27;;;;;;;6.95;1.20;;;10.00;99.90;;;;;;5065505;23;20687;-94
2023/01/08 02:40:56;;;;;;;5.32;1.38;;;10.00;99.90;;;;;;5077297;23;20180;-96
2023/01/08 02:43:16;;;;;;;5.38;1.10;;;10.10;99.90;;;;;;5082100;23;20249;-94
2023/01/08 02:45:47;;;;;;;5.68;1.00;;;9.90;99.90;;;;;;5060742;23;20206;-94
2023/01/08 02:47:54;;;;;;;6.22;0.60;;;10.00;99.90;;;;;;5031874;23;20479;-95
2023/01/08 02:50:14;;;;;;;2.15;0.50;;;10.10;99.90;;;;;;5059818;23;20168;-93
2023/01/08 02:52:17;;;;;;;4.47;0.63;;;10.20;99.90;;;;;;5028604;23;20162;-94
2023/01/08 02:54:27;;;;;;;2.88;0.50;;;10.10;99.90;;;;;;5053554;23;20154;-94
2023/01/08 02:56:51;;;;;;;2.55;0.60;;;9.90;99.90;;;;;;5056232;23;20190;-95
2023/01/08 02:58:53;;;;;;;3.25;0.50;;;10.00;99.90;;;;;;5051223;23;20218;-93
2023/01/08 03:00:55;;;;;;;0.95;0.40;;;10.10;99.90;;;;;;5056528;23;20166;-95
2023/01/08 03:03:22;;;;;;;2.50;0.43;;;10.00;99.90;;;;;;5055614;23;20154;-95
2023/01/08 03:05:36;;;;;;;2.50;0.60;;;10.20;99.90;;;;;;5031699;23;20154;-95
2023/01/08 03:07:45;;;;;;;2.80;0.55;;;10.00;99.90;;;;;;5096532;23;20203;-92
2023/01/08 03:10:02;;;;;;;1.63;0.38;;;10.00;99.90;;;;;;5134621;23;20137;-92
2023/01/08 03:12:19;;;;;;;4.95;0.85;;;9.80;99.90;;;;;;5106228;23;20148;-91
2023/01/08 03:14:40;;;;;;;2.15;0.50;;;9.80;99.90;;;;;;5085345;23;20138;-94
2023/01/08 03:16:59;;;;;;;2.45;0.57;;;9.70;99.90;;;;;;5105705;23;20576;-92
2023/01/08 03:19:19;;;;;;;3.10;0.63;;;9.80;99.90;;;;;;5080992;23;20185;-94
2023/01/08 03:21:26;;;;;;;6.35;1.40;;;9.90;99.90;;;;;;5078557;23;20158;-91
2023/01/08 03:23:32;;;;;;;0.80;0.50;;;10.00;99.90;;;;;;5082093;23;20153;-94
2023/01/08 03:25:47;;;;;;;2.72;0.52;;;9.90;99.90;;;;;;5079836;23;20153;-95
2023/01/08 03:27:57;;;;;;;2.00;0.52;;;9.70;99.90;;;;;;5078998;23;20176;-94
2023/01/08 03:30:01;;;;;;;4.47;0.60;;;9.80;99.90;;;;;;5081205;23;20153;-93
2023/01/08 03:32:14;;;;;;;1.33;0.57;;;9.90;99.90;;;;;;5107944;23;20152;-92
2023/01/08 03:34:55;;;;;;;3.03;0.68;;;9.90;99.90;;;;;;5058856;23;20217;-95
2023/01/08 03:37:27;;;;;;;4.88;0.80;;;9.90;99.90;;;;;;5086383;23;20504;-93
2023/01/08 03:40:23;;;;;;;3.25;0.77;;;9.60;99.90;;;;;;5108698;23;20159;-92
2023/01/08 03:42:56;;;;;;;11.35;1.00;;;9.60;99.90;;;;;;5082488;23;20169;-92
2023/01/08 03:44:58;;;;;;;4.63;0.55;;;9.40;99.90;;;;;;5055234;23;20165;-93
2023/01/08 03:47:00;;;;;;;6.55;0.68;;;9.30;99.90;;;;;;5083935;23;20174;-94
2023/01/08 03:49:05;;;;;;;6.72;0.90;;;9.20;99.90;;;;;;5104071;23;20160;-93
2023/01/08 03:51:09;;;;;;;6.20;1.02;;;9.30;99.90;;;;;;5081077;23;20153;-92
2023/01/08 03:53:10;;;;;;;6.30;0.75;;;9.30;99.90;;;;;;5080837;23;20165;-94
2023/01/08 03:55:15;;;;;;;8.60;0.90;;;9.40;99.90;;;;;;5079901;23;20573;-93
2023/01/08 03:57:19;;;;;;;8.65;0.95;;;9.30;99.90;;;;;;5078721;23;20170;-93
2023/01/08 03:59:20;;;;;;;8.43;1.30;;;9.30;99.90;;;;;;5061988;23;20147;-92
2023/01/08 04:01:21;;;;;;;8.10;1.02;;;9.20;99.90;;;;;;5053326;23;20161;-93
2023/01/08 04:03:23;;;;;;;12.70;1.50;;;9.10;99.90;;;;;;5081860;23;20185;-93
2023/01/08 04:05:24;;;;;;;7.95;0.95;;;9.20;99.90;;;;;;5055242;23;20170;-92
2023/01/08 04:07:33;;;;;;;9.50;0.90;;;9.20;99.90;;;;;;5082589;23;20209;-95
2023/01/08 04:09:34;;;;;;;11.52;1.08;;;9.30;99.90;;;;;;5080497;23;20153;-95
2023/01/08 04:11:35;;;;;;;5.65;0.98;;;9.30;99.90;;;;;;5102801;23;20557;-94
2023/01/08 04:13:49;;;;;;;8.27;0.80;;;9.20;99.90;;;;;;5079197;23;20161;-92
2023/01/08 04:15:50;;;;;;;7.00;0.98;;;9.10;99.90;;;;;;5081640;23;20200;-94
2023/01/08 04:17:52;;;;;;;9.25;1.00;;;9.40;99.90;;;;;;5052470;23;20242;-93
2023/01/08 04:19:53;;;;;;;10.05;0.82;;;9.50;99.90;;;;;;5103701;23;20173;-93
2023/01/08 04:21:56;;;;;;;8.52;1.25;;;9.40;99.90;;;;;;5080181;23;20165;-92
2023/01/08 04:23:57;;;;;;;4.82;0.80;;;9.20;99.90;;;;;;5077040;23;20636;-92
2023/01/08 04:25:58;;;;;;;6.93;1.08;;;9.30;99.90;;;;;;5079868;23;20240;-92
2023/01/08 04:27:59;;;;;;;8.95;1.20;;;9.10;99.90;;;;;;5079034;23;20157;-93
2023/01/08 04:30:00;;;;;;;13.27;1.10;;;9.00;99.90;;;;;;5079257;23;20153;-96
2023/01/08 04:32:00;;;;;;;9.45;1.00;;;8.90;99.90;;;;;;5055525;23;20142;-93
2023/01/08 04:34:04;;;;;;;12.73;1.10;;;8.80;99.90;;;;;;5078931;23;20158;-94
2023/01/08 04:36:05;;;;;;;10.15;1.27;;;8.70;99.90;;;;;;5081000;23;20545;-92
2023/01/08 04:38:06;;;;;;;13.45;0.98;;;8.80;99.90;;;;;;5055675;23;20164;-92
2023/01/08 04:40:08;;;;;;;12.90;1.38;;;8.70;99.90;;;;;;5078574;23;20205;-92
2023/01/08 04:42:13;;;;;;;12.75;1.83;;;8.60;99.90;;;;;;5052978;23;20158;-93
2023/01/08 04:44:14;;;;;;;15.40;1.33;;;8.60;99.90;;;;;;5081614;23;20483;-94
2023/01/08 04:46:14;;;;;;;7.30;1.73;;;8.50;99.90;;;;;;5078480;23;20260;-95
2023/01/08 04:48:15;;;;;;;8.57;1.42;;;8.60;99.90;;;;;;5054458;23;20210;-95
2023/01/08 04:50:16;;;;;;;9.88;1.20;;;8.50;99.90;;;;;;5057954;23;20157;-93
2023/01/08 04:52:24;;;;;;;8.07;1.10;;;8.40;99.90;;;;;;5078366;23;20157;-92
2023/01/08 04:54:45;;;;;;;14.55;1.45;;;8.50;99.90;;;;;;5105020;23;20179;-92
2023/01/08 04:56:48;;;;;;;8.35;1.60;;;8.30;99.90;;;;;;5099430;23;20172;-93
2023/01/08 04:58:49;;;;;;;8.13;1.30;;;8.50;99.90;;;;;;5099814;23;20287;-93
2023/01/08 05:01:00;;;;;;;11.93;1.60;;;8.40;99.90;;;;;;5051612;23;20205;-96
2023/01/08 05:03:01;;;;;;;11.35;1.50;;;8.20;99.90;;;;;;5075564;23;20149;-93
2023/01/08 05:05:02;;;;;;;10.65;1.23;;;8.30;99.90;;;;;;5056432;23;20250;-91
2023/01/08 05:07:21;;;;;;;13.07;1.50;;;8.30;99.90;;;;;;5079974;23;20196;-93
2023/01/08 05:09:25;;;;;;;9.20;1.27;;;8.40;99.90;;;;;;5103076;23;20200;-93
2023/01/08 05:11:26;;;;;;;9.98;1.20;;;8.20;99.90;;;;;;5077738;23;20150;-93
2023/01/08 05:13:29;;;;;;;8.75;1.30;;;8.10;99.90;;;;;;5079212;23;20149;-92
2023/01/08 05:15:33;;;;;;;9.10;1.05;;;8.10;99.90;;;;;;5078237;23;20191;-94
2023/01/08 05:17:34;;;;;;;14.68;1.23;;;8.10;99.90;;;;;;5079279;23;20201;-92
2023/01/08 05:19:35;;;;;;;10.50;1.08;;;8.00;99.90;;;;;;5051457;23;20165;-93
2023/01/08 05:21:38;;;;;;;8.10;1.42;;;8.10;99.90;;;;;;5053301;23;20234;-93
2023/01/08 05:23:43;;;;;;;13.05;1.45;;;8.10;99.90;;;;;;5076291;23;20133;-93
2023/01/08 05:26:05;;;;;;;12.70;1.20;;;8.20;99.90;;;;;;5078233;23;20144;-92
2023/01/08 05:28:06;;;;;;;13.57;1.52;;;8.30;99.90;;;;;;5078343;23;20232;-93
2023/01/08 05:30:07;;;;;;;13.25;1.55;;;8.20;99.90;;;;;;5060536;23;20166;-91
2023/01/08 05:32:28;;;;;;;15.63;1.92;;;8.20;99.90;;;;;;5080820;23;20157;-91
2023/01/08 05:34:29;;;;;;;7.93;1.35;;;8.00;99.90;;;;;;5080003;23;20290;-92
2023/01/08 05:36:45;;;;;;;11.60;1.20;;;8.00;99.90;;;;;;5106358;23;20196;-92
2023/01/08 05:38:53;;;;;;;11.27;1.60;;;7.90;99.90;;;;;;5103835;23;20165;-93
2023/01/08 05:41:19;;;;;;;13.98;1.70;;;7.90;99.90;;;;;;5075533;23;20236;-91
2023/01/08 05:43:20;;;;;;;9.77;1.20;;;8.00;99.90;;;;;;5054701;23;20169;-93
2023/01/08 05:45:21;;;;;;;17.70;1.33;;;8.00;99.90;;;;;;5084011;23;20193;-92
2023/01/08 05:47:35;;;;;;;12.23;1.48;;;8.00;99.90;;;;;;5089080;23;20161;-91
2023/01/08 05:49:36;;;;;;;8.25;1.27;;;7.90;99.90;;;;;;5056708;23;20146;-92
2023/01/08 05:51:41;;;;;;;8.63;1.27;;;7.90;99.90;;;;;;5106943;23;20156;-93
2023/01/08 05:53:46;;;;;;;6.25;1.17;;;7.90;99.90;;;;;;5110003;23;20161;-92
2023/01/08 05:55:46;;;;;;;12.15;1.33;;;8.00;99.90;;;;;;5109605;23;20272;-92
2023/01/08 05:57:50;;;;;;;9.10;1.33;;;7.90;99.90;;;;;;5081456;23;20145;-91
2023/01/08 05:59:55;;;;;;;12.52;1.10;;;7.80;99.90;;;;;;5078007;23;20138;-92
2023/01/08 06:01:59;;;;;;;10.30;1.60;;;7.70;99.90;;;;;;5104758;23;20125;-94
2023/01/08 06:04:00;;;;;;;12.68;1.00;;;7.70;99.90;;;;;;5102575;23;20200;-93
2023/01/08 06:06:03;;;;;;;13.90;1.75;;;7.80;99.90;;;;;;5055928;23;20158;-93
2023/01/08 06:08:24;;;;;;;5.18;0.90;;;7.80;99.90;;;;;;5058670;23;20208;-92
2023/01/08 06:10:44;;;;;;;6.43;0.85;;;8.00;99.90;;;;;;5080610;23;20218;-94
2023/01/08 06:12:51;;;;;;;14.05;1.15;;;8.20;99.90;;;;;;5061072;23;20138;-93
2023/01/08 06:15:07;;;;;;;7.88;1.33;;;8.30;99.90;;;;;;5086059;23;20173;-93
2023/01/08 06:17:17;;;;;;;10.48;1.50;;;8.30;99.90;;;;;;5064579;23;21224;-94
2023/01/08 06:19:41;;;;;;;16.13;1.80;;;8.40;99.90;;;;;;5036969;23;20143;-96
2023/01/08 06:21:45;;;;;;;7.00;1.27;;;8.30;99.90;;;;;;5061128;23;20149;-94
2023/01/08 06:23:49;;;;;;;18.65;1.63;;;8.20;99.90;;;;;;5061793;23;20274;-94
2023/01/08 06:25:56;;;;;;;9.20;1.10;;;8.30;99.90;;;;;;5062887;23;20135;-93
2023/01/08 06:27:57;;;;;;;10.05;1.15;;;8.20;99.90;;;;;;5062312;23;20166;-92
2023/01/08 06:29:58;;;;;;;9.93;1.70;;;8.30;99.90;;;;;;5061297;23;20138;-93
2023/01/08 06:32:05;;;;;;;8.48;1.20;;;8.30;99.90;;;;;;5086517;23;20166;-94
2023/01/08 06:34:19;;;;;;;6.82;0.90;;;8.10;99.90;;;;;;5060913;23;20222;-93
2023/01/08 06:36:32;;;;;;;9.80;1.30;;;8.10;99.90;;;;;;5057434;23;20641;-92
2023/01/08 06:38:56;;;;;;;12.82;1.58;;;8.20;99.90;;;;;;5060253;23;20206;-94
2023/01/08 06:41:09;;;;;;;14.32;1.70;;;8.20;99.90;;;;;;5064092;23;20149;-94
2023/01/08 06:43:37;;;;;;;11.73;1.70;;;8.30;99.90;;;;;;5039030;23;20135;-95
2023/01/08 06:46:08;;;;;;;9.55;1.38;;;8.30;99.90;;;;;;5038088;23;20159;-94
2023/01/08 06:48:24;;;;;;;9.02;1.35;;;8.10;99.90;;;;;;5038789;23;20187;-94
2023/01/08 06:50:32;;;;;;;8.80;1.40;;;8.20;99.90;;;;;;5061660;23;20150;-93
2023/01/08 06:52:54;;;;;;;9.00;1.38;;;8.40;99.90;;;;;;5086301;23;20172;-93
2023/01/08 06:55:05;;;;;;;8.95;1.17;;;8.40;99.90;;;;;;5063450;23;20194;-93
2023/01/08 06:57:08;;;;;;;14.70;1.58;;;8.40;99.90;;;;;;5038381;23;20165;-93
2023/01/08 06:59:15;;;;;;;7.43;1.23;;;8.20;99.90;;;;;;5038641;23;20143;-93
2023/01/08 07:01:21;;;;;;;8.80;1.33;;;8.10;99.90;;;;;;5060647;23;20318;-92
2023/01/08 07:03:26;;;;;;;11.82;1.20;;;8.10;99.90;;;;;;5061476;23;20150;-92
2023/01/08 07:05:50;;;;;;;12.50;1.33;;;8.10;99.90;;;;;;5066578;23;20157;-92
2023/01/08 07:07:55;;;;;;;13.40;1.83;;;8.20;99.90;;;;;;5055527;23;20273;-92
2023/01/08 07:10:08;;;;;;;11.35;1.23;;;8.10;99.90;;;;;;5086384;23;20158;-94
2023/01/08 07:12:15;;;;;;;9.05;1.42;;;8.20;99.90;;;;;;5087406;23;20197;-93
2023/01/08 07:14:20;;;;;;;12.68;1.60;;;8.20;99.90;;;;;;5088792;23;20160;-92
2023/01/08 07:18:43;;;;;;;15.07;1.40;;;8.20;99.90;;;;;;5132776;23;20207;-93
2023/01/08 07:20:49;;;;;;;11.95;1.30;;;8.20;99.90;;;;;;5111027;23;20216;-92
2023/01/08 07:22:53;;;;;;;10.85;1.70;;;8.30;99.90;;;;;;5085486;23;20138;-92
2023/01/08 07:24:59;;;;;;;12.90;1.92;;;8.40;99.90;;;;;;5105853;23;20148;-95
2023/01/08 07:27:08;;;;;;;11.60;1.58;;;8.40;99.90;;;;;;5084596;23;20174;-93
2023/01/08 07:29:19;;;;;;;8.30;1.75;;;8.60;99.90;;;;;;5111015;23;20181;-92
2023/01/08 07:31:35;;;;;;;8.73;1.30;;;8.60;99.90;;;;;;5109390;23;20160;-92
2023/01/08 07:33:36;;;;;;;22.45;2.45;;;8.70;99.90;;;;;;5087006;23;20146;-92
2023/01/08 07:35:37;;;;;;;12.40;1.95;;;8.60;99.90;;;;;;5085554;23;20276;-95
2023/01/08 07:37:40;;;;;;;6.18;1.52;;;8.70;99.90;;;;;;5086928;23;20215;-93
2023/01/08 07:39:46;;;;;;;12.48;1.70;;;8.80;99.90;;;;;;5109760;23;20160;-93
2023/01/08 07:41:50;;;;;;;16.77;2.42;;;8.70;99.90;;;;;;5086182;23;20560;-92
2023/01/08 07:43:55;;;;;;;12.15;2.13;;;8.70;99.90;;;;;;5083223;23;20169;-93
2023/01/08 07:45:59;;;;;;;9.48;1.77;;;8.70;99.90;;;;;;5083094;23;20292;-91
2023/01/08 07:48:03;;;;;;;7.95;1.80;;;8.60;99.90;;;;;;5063509;23;20526;-91
2023/01/08 07:50:31;;;;;;;9.63;2.35;;;8.40;99.90;;;;;;5085065;23;20154;-94
2023/01/08 07:52:39;;;;;;;10.02;1.90;;;8.30;99.90;;;;;;5111515;23;20161;-92
2023/01/08 12:55:58;;;;;;;;;;;;;;;;;;;;;
2023/01/08 13:06:24;;;;;;;;;;;;;;;;;;;;;
2023/01/08 13:50:48;;;;;;;10.02;1.00;;;11.50;99.90;;;;;;5120787;23;20265;-96
2023/01/08 13:54:36;;;;;;;;;;;;;;;;;;;;;
2023/01/08 13:58:13;;;;;;;9.10;1.10;;;11.20;99.90;;;;;;4990799;23;20195;-95
2023/01/08 14:17:35;;;;;;;;;;;;;;;;;;;;;
2023/01/08 14:21:02;;;;;;;6.65;0.95;;;11.10;99.90;;;;;;5118247;23;20164;-93
2023/01/08 14:30:37;;;;;;;5.38;0.75;;;11.00;99.90;;;;;;4929046;24;20168;-95
2023/01/08 14:34:07;;;;;;;7.93;1.00;;;11.10;99.90;;;;;;4822321;24;20495;-95
2023/01/08 14:40:05;;;;;;;10.73;0.98;;;11.10;99.90;;;;;;4865540;24;20167;-94
2023/01/08 14:43:25;;;;;;;;;;;;;;;;;;;;;
2023/01/08 14:52:48;;;;;;;7.38;1.02;;;10.80;99.90;;;;;;5130799;23;20151;-95
2023/01/08 15:06:16;;;;;;;8.30;0.95;;;10.90;99.90;;;;;;4888854;24;20223;-95
2023/01/08 15:53:27;;;;;;;;;;;;;;;;;;;;;
2023/01/08 15:56:06;;;;;;;9.10;1.80;;;10.50;99.90;;;;;;5123244;23;20199;-94
2023/01/08 16:05:35;;;;;;;11.63;1.35;;;10.70;99.90;;;;;;4889990;24;20211;-94
2023/01/08 16:08:44;;;;;;;;;;;;;;;;;;;;;
2023/01/08 16:18:22;;;;;;;4.38;0.93;;;10.70;99.90;;;;;;4851416;24;20271;-95
2023/01/08 16:21:49;;;;;;;;;;;;;;;;;;;;;
2023/01/08 16:25:00;;;;;;;;;;;;;;;;;;;;;
2023/01/08 16:59:19;;;;;;;5.05;0.90;;;10.40;99.90;;;;;;5048167;23;20254;-94
2023/01/08 17:06:08;;;;;;;;;;;;;;;;;;;;;
